Liverpool, Illinois
Current Conditions -  °F | °C
As of 1:54 PM on Monday 24 Nov 2014 (Local Time) from KPIA Reporting Station
Overcast Overcast  
Wind Chill: -7°   Ceiling: 1700
Heat Index:   Visibility: 9mi
Dew Point: -3°   Wind: 22mph
Humidity: 79%   Direction: 260°W
Pressure: 29.61"   Gusts: 32mph
Location:  40.39°N, 90°W
Report Text: KPIA 241954Z 26019G28KT 9SM OVC017 00/M03 A2961 RMK AO2 PK WND 27028/1954 SLP031 T00001033
Loading
Personal Weather Stations






























Interactive Weather Map New forecast layout! Learn more

10-Day Weather Forecast

Advertisements
Track Severe Weather on mobile